createdAt,value
2018-11-22T12:18:04.295Z,43.58
2018-11-22T12:22:30.522Z,43.75
2018-11-22T12:24:59.771Z,44.07
2018-11-22T12:27:28.568Z,43.45
2018-11-22T12:29:57.294Z,43.41
2018-11-22T12:32:30.643Z,43.48
2018-11-22T12:35:00.099Z,43.24
2018-11-22T12:37:34.099Z,43.72
2018-11-22T12:40:02.510Z,43.98
2018-11-22T12:42:31.380Z,43.47
2018-11-22T12:45:03.042Z,43.78
2018-11-22T12:47:32.309Z,43.82
2018-11-22T12:50:02.255Z,43.92
2018-11-22T12:52:30.732Z,43.84
2018-11-22T12:54:59.196Z,43.62
2018-11-22T12:57:28.309Z,43.79
2018-11-22T12:59:57.144Z,43.50
2018-11-22T13:02:25.450Z,43.08
2018-11-22T13:04:54.340Z,43.27
2018-11-22T13:07:22.556Z,43.31
2018-11-22T13:09:51.382Z,43.06
2018-11-22T13:12:20.726Z,43.50
2018-11-22T13:14:49.901Z,42.94
2018-11-22T13:17:18.787Z,43.19
2018-11-22T13:19:47.026Z,43.12
2018-11-22T13:22:15.156Z,43.39
2018-11-22T13:24:43.591Z,43.18
2018-11-22T13:28:56.744Z,43.10
2018-11-22T13:31:25.075Z,43.13
2018-11-22T13:33:53.780Z,43.75
2018-11-22T13:36:22.297Z,43.19
2018-11-22T13:38:50.775Z,42.94
2018-11-22T13:41:18.977Z,43.39
2018-11-22T13:43:47.378Z,42.69
2018-11-22T13:46:17.429Z,43.01
2018-11-22T13:48:47.454Z,43.22
2018-11-22T13:51:16.439Z,43.15
2018-11-22T13:53:44.775Z,42.89
2018-11-22T13:56:13.447Z,43.23
2018-11-22T13:58:42.186Z,43.69
2018-11-22T14:01:10.591Z,43.09
2018-11-22T14:03:39.614Z,42.96
2018-11-22T14:06:08.242Z,43.04
2018-11-22T14:08:36.466Z,42.94
2018-11-22T14:11:52.237Z,42.83
2018-11-22T14:14:23.188Z,43.77
2018-11-22T14:16:51.668Z,43.46
2018-11-22T14:19:20.062Z,43.10
2018-11-22T14:21:48.808Z,43.16
2018-11-22T14:24:16.963Z,43.08
2018-11-22T14:27:02.202Z,43.01
2018-11-22T14:29:30.693Z,42.76
2018-11-22T14:31:58.959Z,43.01
2018-11-22T14:34:27.265Z,43.02
2018-11-22T14:36:55.819Z,43.04
2018-11-22T14:39:24.549Z,43.19
2018-11-22T14:41:53.105Z,43.62
2018-11-22T14:44:22.215Z,42.88
2018-11-22T14:46:50.564Z,42.92
2018-11-22T14:49:19.078Z,43.32
2018-11-22T14:51:48.259Z,43.40
2018-11-22T14:57:26.804Z,43.08
2018-11-22T14:59:55.155Z,43.37
2018-11-22T15:02:23.610Z,43.29
2018-11-22T15:04:51.809Z,44.66
2018-11-22T15:07:19.953Z,43.34
2018-11-22T15:09:48.167Z,43.46
2018-11-22T15:12:16.544Z,43.50
2018-11-22T15:14:45.574Z,43.40
2018-11-22T15:17:14.030Z,43.26
2018-11-22T15:19:43.063Z,43.73
2018-11-22T15:22:12.958Z,43.09
2018-11-22T15:25:20.283Z,43.44
2018-11-22T15:27:48.800Z,43.50
2018-11-22T15:30:18.661Z,43.24
2018-11-22T15:33:31.837Z,43.32
2018-11-22T15:36:00.379Z,43.41
2018-11-22T15:38:28.555Z,44.15
2018-11-22T15:43:38.362Z,43.22
2018-11-22T15:46:08.457Z,43.88
2018-11-22T15:48:37.990Z,43.40
2018-11-22T15:51:06.956Z,43.31
2018-11-22T15:53:35.521Z,43.39
2018-11-22T15:56:03.879Z,44.54
2018-11-22T15:58:32.318Z,44.28
2018-11-22T16:01:00.990Z,43.69
2018-11-22T16:03:29.643Z,43.99
2018-11-22T16:05:59.149Z,43.88
2018-11-22T16:08:27.333Z,43.42
2018-11-22T16:10:56.231Z,43.77
2018-11-22T16:13:24.524Z,43.51
2018-11-22T16:15:54.118Z,43.72
2018-11-22T16:18:22.751Z,43.47
2018-11-22T16:20:50.958Z,43.47
2018-11-22T16:23:19.104Z,43.23
2018-11-22T16:25:47.522Z,43.86
2018-11-22T16:28:15.766Z,43.53
2018-11-22T16:30:44.175Z,43.71
2018-11-22T16:33:12.782Z,43.75
2018-11-22T16:35:41.133Z,43.41
2018-11-22T16:38:09.959Z,43.63
2018-11-22T16:40:38.387Z,43.70
2018-11-22T16:43:07.008Z,43.08
2018-11-22T16:45:36.432Z,43.35
2018-11-22T16:48:13.067Z,43.11
2018-11-22T16:50:42.702Z,43.62
2018-11-22T16:53:11.081Z,43.82
2018-11-22T16:55:39.702Z,43.55
2018-11-22T16:58:08.042Z,43.15
2018-11-22T17:02:09.607Z,42.77
2018-11-22T17:04:38.295Z,42.97
2018-11-22T17:08:07.957Z,43.33
2018-11-22T17:10:36.573Z,43.10
2018-11-22T17:13:06.104Z,43.08
2018-11-22T17:15:35.727Z,42.96
2018-11-22T17:18:04.776Z,43.02
2018-11-22T17:20:33.456Z,42.72
2018-11-22T17:23:02.281Z,42.62
2018-11-22T17:25:32.040Z,42.81
2018-11-22T17:28:01.737Z,42.30
2018-11-22T17:30:33.653Z,43.07
2018-11-22T17:33:01.965Z,42.78
2018-11-22T17:35:31.234Z,42.92
2018-11-22T17:38:00.814Z,43.28
2018-11-22T17:40:31.944Z,42.38
2018-11-22T17:43:00.746Z,42.90
2018-11-22T17:45:33.782Z,42.39
2018-11-22T17:50:17.763Z,42.77
2018-11-22T17:52:46.156Z,42.69
2018-11-22T17:55:17.255Z,43.67
2018-11-22T17:57:45.581Z,43.73
2018-11-22T18:00:17.824Z,43.02
2018-11-22T18:02:47.514Z,42.95
2018-11-22T18:05:16.021Z,42.63
2018-11-22T18:07:45.219Z,43.34
2018-11-22T18:10:15.309Z,42.66
2018-11-22T18:12:44.780Z,43.22
2018-11-22T18:15:15.096Z,43.52
2018-11-22T18:17:44.313Z,43.38
2018-11-22T18:20:14.407Z,42.69
2018-11-22T18:22:44.206Z,42.61
2018-11-22T18:25:14.673Z,42.40
2018-11-22T18:28:58.465Z,42.46
2018-11-22T18:32:35.453Z,42.26
2018-11-22T18:35:03.793Z,42.85
2018-11-22T18:37:32.529Z,42.47
2018-11-22T18:40:00.808Z,42.45
2018-11-22T18:43:28.815Z,41.85
2018-11-22T18:45:57.343Z,42.56
2018-11-22T18:48:27.356Z,41.77
2018-11-22T18:50:56.091Z,42.14
2018-11-22T18:53:24.916Z,42.20
2018-11-22T18:55:53.704Z,41.40
2018-11-22T18:58:22.699Z,41.77
2018-11-22T19:00:51.203Z,42.20
2018-11-22T19:03:20.197Z,41.96
2018-11-22T19:05:49.269Z,42.39
2018-11-22T19:08:17.732Z,41.95
2018-11-22T19:10:46.598Z,42.15
2018-11-22T19:13:15.782Z,42.43
2018-11-22T19:17:29.381Z,41.93
2018-11-22T19:19:58.089Z,42.00
2018-11-22T19:22:26.525Z,42.33
2018-11-22T19:24:55.412Z,41.88
2018-11-22T19:27:24.830Z,41.84
2018-11-22T19:29:56.145Z,42.43
2018-11-22T19:32:24.836Z,42.36
2018-11-22T19:34:54.066Z,42.45
2018-11-22T19:37:22.448Z,42.06
2018-11-22T19:39:51.085Z,42.21
2018-11-22T19:42:19.648Z,41.97
2018-11-22T19:44:48.996Z,42.20
2018-11-22T19:47:17.598Z,42.67
2018-11-22T19:49:46.909Z,42.66
2018-11-22T19:52:15.962Z,42.61
2018-11-22T19:54:44.939Z,42.50
2018-11-22T19:57:16.207Z,43.09
2018-11-22T19:59:45.763Z,43.05
2018-11-22T20:02:14.443Z,42.57
2018-11-22T20:04:43.097Z,42.96
2018-11-22T20:07:12.957Z,42.51
2018-11-22T20:09:41.817Z,42.56
2018-11-22T20:12:10.547Z,42.37
2018-11-22T20:15:46.275Z,43.04
2018-11-22T20:18:15.700Z,43.42
2018-11-22T20:20:49.594Z,42.45
2018-11-22T20:23:13.249Z,41.66
2018-11-22T20:25:41.708Z,42.53
2018-11-22T20:28:10.129Z,42.61
2018-11-22T20:30:41.528Z,42.04
2018-11-22T20:33:10.675Z,42.47
2018-11-22T20:35:40.188Z,42.49
2018-11-22T20:38:08.788Z,42.93
2018-11-22T20:40:37.351Z,42.13
2018-11-22T20:43:06.486Z,42.38
2018-11-22T20:45:40.780Z,41.73
2018-11-22T20:48:06.250Z,42.23
2018-11-22T20:50:35.078Z,42.15
2018-11-22T20:53:03.567Z,41.89
2018-11-22T20:55:33.658Z,42.17
2018-11-22T20:58:03.441Z,41.64
2018-11-22T21:00:34.302Z,42.06
2018-11-22T21:03:02.921Z,41.33
2018-11-22T21:05:32.835Z,42.19
2018-11-22T21:08:01.360Z,42.15
2018-11-22T21:10:30.968Z,42.08
2018-11-22T21:12:59.466Z,41.59
2018-11-22T21:15:29.863Z,42.18
2018-11-22T21:17:59.878Z,42.33
2018-11-22T21:20:30.863Z,42.43
2018-11-22T21:22:59.309Z,42.03
2018-11-22T21:25:28.211Z,42.41
2018-11-22T21:27:56.977Z,41.64
2018-11-22T21:30:27.448Z,41.83
2018-11-22T21:32:56.505Z,41.68
2018-11-22T21:35:25.996Z,41.35
2018-11-22T21:37:56.197Z,42.37
2018-11-22T21:40:25.540Z,42.02
2018-11-22T21:42:54.598Z,41.77
2018-11-22T21:45:24.185Z,42.41
2018-11-22T21:47:52.860Z,42.00
2018-11-22T21:50:23.802Z,42.79
2018-11-22T21:53:50.730Z,42.40
2018-11-22T21:56:19.484Z,42.70
2018-11-22T21:58:47.998Z,42.40
2018-11-22T22:01:16.453Z,42.55
2018-11-22T22:03:45.350Z,42.58
2018-11-22T22:06:14.310Z,42.52
2018-11-22T22:08:42.906Z,42.73
2018-11-22T22:11:11.780Z,42.45
2018-11-22T22:13:40.333Z,42.64
2018-11-22T22:16:08.818Z,42.20
2018-11-22T22:18:37.432Z,42.32
2018-11-22T22:21:07.543Z,42.79
2018-11-22T22:23:36.393Z,42.46
2018-11-22T22:26:05.216Z,42.00
2018-11-22T22:28:34.175Z,42.62
2018-11-22T22:31:02.902Z,42.83
2018-11-22T22:33:31.517Z,41.96
2018-11-22T22:36:00.128Z,42.42
2018-11-22T22:38:28.544Z,43.15
2018-11-22T22:42:09.316Z,42.74
2018-11-22T22:44:38.214Z,42.07
2018-11-22T22:47:06.589Z,42.68
2018-11-22T22:50:52.982Z,43.19
2018-11-22T22:53:21.711Z,43.17
2018-11-22T22:55:50.194Z,43.34
2018-11-22T22:58:18.641Z,43.41
2018-11-22T23:00:47.943Z,43.04
2018-11-22T23:03:16.971Z,43.33
2018-11-22T23:05:45.560Z,43.64
2018-11-22T23:08:14.137Z,43.58
2018-11-22T23:11:30.918Z,43.90
2018-11-22T23:14:00.333Z,43.03
2018-11-22T23:16:28.780Z,43.35
2018-11-22T23:18:58.862Z,43.01
2018-11-22T23:21:27.340Z,43.23
2018-11-22T23:23:55.907Z,43.48
2018-11-22T23:26:24.635Z,44.04
2018-11-22T23:28:53.609Z,43.39
2018-11-22T23:31:22.021Z,42.97
2018-11-22T23:33:50.616Z,43.79
2018-11-22T23:36:19.305Z,43.53
2018-11-22T23:38:48.362Z,43.41
2018-11-22T23:41:18.712Z,43.47
2018-11-22T23:43:47.221Z,42.87
2018-11-22T23:46:15.866Z,43.48
2018-11-22T23:48:45.058Z,43.85
2018-11-22T23:51:14.008Z,44.23
2018-11-22T23:53:42.637Z,44.23
2018-11-22T23:56:11.795Z,43.66
2018-11-22T23:58:41.551Z,43.67
